Time;durP1;ratioP1;P1;durP2;ratioP2;P2;SDS_P1;SDS_P2;PMS_P1;PMS_P2;Temp;Humidity;BMP_temperature;BMP_pressure;BME280_temperature;BME280_humidity;BME280_pressure;Samples;Min_cycle;Max_cycle;Signal;HPM_P1;HPM_P2
2022/03/28 00:02:08;;;;;;;17.23;9.82;;;;;;;10.43;57.09;102427.84;4989495;28;101858;-51
2022/03/28 00:04:35;;;;;;;16.80;9.68;;;;;;;10.44;57.19;102435.75;4990303;28;102300;-50
2022/03/28 00:07:02;;;;;;;15.05;9.80;;;;;;;10.44;57.48;102434.94;4989281;28;103066;-51
2022/03/28 00:09:29;;;;;;;16.23;9.32;;;;;;;10.43;57.57;102428.66;4990949;28;103911;-51
2022/03/28 00:11:59;;;;;;;16.13;9.30;;;;;;;10.43;57.46;102428.66;4982063;28;102250;-51
2022/03/28 00:14:26;;;;;;;15.50;9.15;;;;;;;10.43;57.16;102428.66;4971073;28;102096;-51
2022/03/28 00:16:55;;;;;;;16.42;9.05;;;;;;;10.42;57.42;102421.56;4971980;28;102190;-51
2022/03/28 00:19:25;;;;;;;13.18;8.18;;;;;;;10.43;57.34;102417.78;4971198;28;103967;-51
2022/03/28 00:21:51;;;;;;;15.52;8.23;;;;;;;10.43;57.20;102411.50;4986224;28;102452;-51
2022/03/28 00:24:18;;;;;;;14.98;8.32;;;;;;;10.43;57.32;102412.34;4984894;28;102176;-51
2022/03/28 00:26:44;;;;;;;16.95;9.25;;;;;;;10.42;57.72;102415.25;4993235;28;102392;-51
2022/03/28 00:29:13;;;;;;;14.63;8.45;;;;;;;10.42;57.17;102409.81;4993754;28;103725;-51
2022/03/28 00:31:40;;;;;;;15.07;8.95;;;;;;;10.42;57.28;102410.69;4993985;28;102163;-51
2022/03/28 00:34:08;;;;;;;15.38;8.70;;;;;;;10.42;57.14;102415.25;4992033;28;102440;-51
2022/03/28 00:36:36;;;;;;;14.07;8.25;;;;;;;10.42;57.25;102413.41;4993979;28;102166;-51
2022/03/28 00:39:03;;;;;;;13.88;8.43;;;;;;;10.42;57.56;102412.53;4993972;28;104072;-51
2022/03/28 00:41:29;;;;;;;14.02;8.05;;;;;;;10.41;57.33;102414.44;4992611;28;102238;-51
2022/03/28 00:43:57;;;;;;;12.55;8.40;;;;;;;10.42;57.14;102398.94;4999893;28;102365;-51
2022/03/28 00:46:25;;;;;;;13.60;7.60;;;;;;;10.42;57.67;102409.81;5014912;28;102344;-51
2022/03/28 00:48:58;;;;;;;11.93;7.72;;;;;;;10.41;57.46;102409.00;5014074;28;103987;-51
2022/03/28 00:51:25;;;;;;;11.77;7.82;;;;;;;10.42;57.04;102421.56;5002200;28;102031;-51
2022/03/28 00:53:52;;;;;;;12.25;7.47;;;;;;;10.41;57.43;102413.59;4993389;28;102112;-51
2022/03/28 00:56:18;;;;;;;13.95;7.40;;;;;;;10.41;57.26;102413.59;4994743;28;102140;-52
2022/03/28 00:58:46;;;;;;;13.25;7.93;;;;;;;10.41;57.82;102413.59;4992665;28;103859;-53
2022/03/28 01:01:13;;;;;;;10.93;7.68;;;;;;;10.40;57.47;102411.97;4993344;28;102096;-51
2022/03/28 01:03:42;;;;;;;11.82;7.85;;;;;;;10.40;57.50;102418.22;4993567;28;102432;-51
2022/03/28 01:06:09;;;;;;;12.05;7.75;;;;;;;10.40;57.32;102418.22;4994216;28;102385;-51
2022/03/28 01:08:36;;;;;;;11.68;6.97;;;;;;;10.40;57.23;102422.84;4992949;28;104106;-50
2022/03/28 01:11:05;;;;;;;13.13;7.55;;;;;;;10.41;57.93;102419.06;4991539;28;101967;-51
2022/03/28 01:13:33;;;;;;;11.05;7.38;;;;;;;10.39;57.29;102416.56;4993516;28;102199;-51
2022/03/28 01:16:01;;;;;;;10.50;6.95;;;;;;;10.39;57.66;102402.97;4985961;28;102140;-51
2022/03/28 01:18:28;;;;;;;12.95;7.90;;;;;;;10.39;57.44;102400.25;4973291;28;103905;-51
2022/03/28 01:20:57;;;;;;;12.10;6.80;;;;;;;10.40;57.62;102409.25;4974296;28;102043;-51
2022/03/28 01:23:24;;;;;;;11.27;7.50;;;;;;;10.40;57.64;102412.78;4981504;28;102299;-51
2022/03/28 01:25:51;;;;;;;11.18;7.00;;;;;;;10.39;57.72;102410.31;4974686;28;102130;-51
2022/03/28 01:28:19;;;;;;;13.52;6.82;;;;;;;10.39;57.69;102415.75;4974469;28;103984;-50
2022/03/28 01:30:46;;;;;;;12.60;7.32;;;;;;;10.40;57.43;102422.84;4993762;28;102099;-51
2022/03/28 01:33:14;;;;;;;11.98;6.95;;;;;;;10.39;57.19;102429.34;4991933;28;101874;-51
2022/03/28 01:35:43;;;;;;;10.65;7.22;;;;;;;10.39;57.60;102426.63;4985213;28;102213;-51
2022/03/28 01:38:13;;;;;;;9.70;6.88;;;;;;;10.39;57.29;102421.19;4976940;28;104149;-51
2022/03/28 01:40:42;;;;;;;11.60;6.85;;;;;;;10.38;57.88;102419.50;4992411;28;102759;-51
2022/03/28 01:43:09;;;;;;;8.43;6.68;;;;;;;10.38;57.71;102424.94;4994088;28;101934;-51
2022/03/28 01:45:35;;;;;;;13.13;7.10;;;;;;;10.39;57.73;102421.19;4995240;28;102137;-51
2022/03/28 01:48:02;;;;;;;11.07;7.05;;;;;;;10.39;57.43;102426.63;4983729;28;103986;-51
2022/03/28 01:50:33;;;;;;;13.18;7.13;;;;;;;10.38;57.36;102430.41;4991698;28;102532;-51
2022/03/28 01:52:59;;;;;;;10.20;6.82;;;;;;;10.38;57.46;102444.81;4991227;28;102504;-51
2022/03/28 01:55:27;;;;;;;12.30;6.80;;;;;;;10.39;57.75;102443.78;4993576;28;102588;-51
2022/03/28 01:57:54;;;;;;;10.23;6.60;;;;;;;10.38;57.59;102431.22;4987869;28;103333;-51
2022/03/28 02:00:25;;;;;;;10.85;6.82;;;;;;;10.38;57.06;102427.66;4986019;28;102427;-51
2022/03/28 02:02:52;;;;;;;10.50;6.97;;;;;;;10.38;57.14;102442.09;4990034;28;102382;-52
2022/03/28 02:05:19;;;;;;;11.00;6.85;;;;;;;10.38;57.57;102435.84;4992021;28;102527;-51
2022/03/28 02:07:47;;;;;;;9.52;6.80;;;;;;;10.38;57.69;102438.56;4991592;28;104091;-51
2022/03/28 02:10:23;;;;;;;10.00;6.18;;;;;;;10.38;57.76;102441.28;4991590;28;102072;-51
2022/03/28 02:12:52;;;;;;;12.23;6.80;;;;;;;10.38;57.99;102446.72;4975427;28;102510;-51
2022/03/28 02:15:20;;;;;;;8.60;6.07;;;;;;;10.37;57.80;102443.16;4993449;28;102405;-51
2022/03/28 02:17:47;;;;;;;11.18;6.32;;;;;;;10.36;57.12;102433.34;4992407;28;103936;-51
2022/03/28 02:20:14;;;;;;;10.13;6.15;;;;;;;10.37;57.62;102445.91;4991867;28;102098;-51
2022/03/28 02:22:43;;;;;;;10.50;6.32;;;;;;;10.37;57.93;102445.06;4990642;28;102512;-51
2022/03/28 02:25:10;;;;;;;11.35;6.78;;;;;;;10.37;57.44;102450.50;4994323;28;102608;-51
2022/03/28 02:27:37;;;;;;;9.35;6.55;;;;;;;10.37;57.32;102450.50;4989823;28;104042;-51
2022/03/28 02:30:08;;;;;;;9.23;5.95;;;;;;;10.36;57.45;102449.69;4977513;28;101991;-50
2022/03/28 02:32:35;;;;;;;8.30;5.60;;;;;;;10.35;57.55;102448.03;4972414;28;102001;-51
2022/03/28 02:35:03;;;;;;;10.88;6.07;;;;;;;10.36;57.65;102459.75;4974704;28;102339;-51
2022/03/28 02:37:30;;;;;;;9.67;6.27;;;;;;;10.36;57.49;102455.13;4972792;28;104018;-51
2022/03/28 02:39:57;;;;;;;7.97;5.72;;;;;;;10.37;57.38;102450.50;4983352;28;102154;-51
2022/03/28 02:42:24;;;;;;;9.02;6.03;;;;;;;10.36;57.97;102459.75;4991210;28;102534;-51
2022/03/28 02:44:51;;;;;;;11.20;6.20;;;;;;;10.36;57.84;102460.56;4978076;28;102195;-51
2022/03/28 02:47:20;;;;;;;9.57;6.03;;;;;;;10.37;57.75;102455.94;4972274;28;103932;-51
2022/03/28 02:49:47;;;;;;;8.60;5.57;;;;;;;10.36;57.50;102457.03;4978870;28;102340;-51
2022/03/28 02:52:14;;;;;;;9.05;5.90;;;;;;;10.36;57.76;102462.47;4993000;28;102287;-51
2022/03/28 02:54:40;;;;;;;9.13;5.78;;;;;;;10.34;57.48;102452.63;4992123;28;102088;-51
2022/03/28 02:57:07;;;;;;;9.77;5.95;;;;;;;10.34;57.55;102458.06;4988228;28;104054;-50
2022/03/28 02:59:37;;;;;;;10.10;6.15;;;;;;;10.34;57.14;102463.50;4972509;28;102415;-51
2022/03/28 03:02:04;;;;;;;8.68;5.30;;;;;;;10.36;57.71;102448.84;4971705;28;102796;-51
2022/03/28 03:04:33;;;;;;;9.43;5.65;;;;;;;10.35;57.53;102448.03;4989791;28;102000;-51
2022/03/28 03:07:00;;;;;;;6.90;5.27;;;;;;;10.34;57.48;102449.91;4991504;28;104310;-51
2022/03/28 03:09:35;;;;;;;7.30;5.05;;;;;;;10.36;58.20;102448.84;4992319;28;102453;-51
2022/03/28 03:12:02;;;;;;;8.07;5.50;;;;;;;10.34;57.33;102444.44;4990867;28;102471;-51
2022/03/28 03:14:40;;;;;;;9.02;5.20;;;;;;;10.34;57.22;102459.94;4992990;28;102595;-51
2022/03/28 03:17:07;;;;;;;8.23;5.30;;;;;;;10.34;57.67;102452.63;4989934;28;103801;-51
2022/03/28 03:19:35;;;;;;;7.82;5.22;;;;;;;10.34;57.79;102457.22;4992301;28;102511;-51
2022/03/28 03:22:02;;;;;;;9.05;5.45;;;;;;;10.33;57.37;102459.13;4990140;28;102438;-51
2022/03/28 03:24:29;;;;;;;8.07;5.50;;;;;;;10.34;58.21;102458.06;4993522;28;102465;-51
2022/03/28 03:26:56;;;;;;;8.60;4.88;;;;;;;10.34;58.12;102463.50;4991300;28;103942;-51
2022/03/28 03:29:22;;;;;;;9.38;5.55;;;;;;;10.33;57.99;102467.28;4992427;28;102060;-51
2022/03/28 03:31:50;;;;;;;9.18;5.25;;;;;;;10.34;57.55;102463.50;4990907;28;102445;-51
2022/03/28 03:34:16;;;;;;;8.45;5.15;;;;;;;10.33;57.55;102463.75;4993288;28;102588;-51
2022/03/28 03:36:44;;;;;;;8.43;5.45;;;;;;;10.33;57.21;102467.28;4987267;28;103943;-51
2022/03/28 03:39:11;;;;;;;8.73;5.55;;;;;;;10.33;57.89;102470.00;4992470;28;101873;-51
2022/03/28 03:41:38;;;;;;;8.32;5.50;;;;;;;10.33;57.84;102467.28;4989799;28;102434;-51
2022/03/28 03:44:06;;;;;;;8.82;5.20;;;;;;;10.33;58.16;102467.28;4992601;28;102720;-51
2022/03/28 03:46:33;;;;;;;10.52;5.10;;;;;;;10.32;57.34;102476.53;4991357;28;104247;-51
2022/03/28 03:49:00;;;;;;;8.48;5.20;;;;;;;10.32;58.27;102470.25;4991425;28;101863;-51
2022/03/28 03:51:27;;;;;;;7.47;4.43;;;;;;;10.33;57.93;102474.63;4992040;28;102302;-51
2022/03/28 03:53:55;;;;;;;7.53;4.68;;;;;;;10.32;57.39;102465.63;4991117;28;102086;-51
2022/03/28 03:56:22;;;;;;;7.93;5.00;;;;;;;10.33;57.38;102467.28;4989480;28;103626;-51
2022/03/28 03:58:49;;;;;;;8.00;5.20;;;;;;;10.32;57.50;102471.06;4986000;28;102130;-51
2022/03/28 04:01:15;;;;;;;8.82;5.15;;;;;;;10.32;58.12;102465.63;4974195;28;103014;-51
2022/03/28 04:03:42;;;;;;;8.85;5.38;;;;;;;10.33;57.31;102472.72;4994173;28;102460;-51
2022/03/28 04:06:10;;;;;;;7.47;5.15;;;;;;;10.31;57.82;102469.44;4991836;28;103961;-51
2022/03/28 04:08:37;;;;;;;7.22;5.13;;;;;;;10.31;57.58;102463.97;4995332;28;102317;-51
2022/03/28 04:11:06;;;;;;;8.82;5.22;;;;;;;10.31;57.92;102474.88;4992752;28;102733;-51
2022/03/28 04:13:34;;;;;;;9.35;5.10;;;;;;;10.31;57.46;102463.97;4995412;28;102760;-51
2022/03/28 04:16:00;;;;;;;7.38;4.88;;;;;;;10.31;57.88;102466.69;4994938;28;104022;-51
2022/03/28 04:18:27;;;;;;;6.75;4.40;;;;;;;10.32;57.98;102475.69;4994389;28;102400;-51
2022/03/28 04:20:54;;;;;;;7.93;4.93;;;;;;;10.31;57.75;102474.88;4994794;28;102301;-51
2022/03/28 04:23:22;;;;;;;9.07;5.18;;;;;;;10.32;57.95;102470.25;4995130;28;102642;-51
2022/03/28 04:25:49;;;;;;;7.28;4.70;;;;;;;10.31;58.29;102480.31;4991119;28;104106;-51
2022/03/28 04:28:20;;;;;;;7.07;4.53;;;;;;;10.31;57.54;102472.16;4995263;28;102298;-51
2022/03/28 04:30:50;;;;;;;5.47;4.03;;;;;;;10.30;58.17;102478.63;4995025;28;102333;-51
2022/03/28 04:33:17;;;;;;;6.35;4.55;;;;;;;10.32;57.29;102481.13;4983214;28;102074;-51
2022/03/28 04:35:44;;;;;;;7.72;4.57;;;;;;;10.32;58.01;102486.59;4994280;28;104112;-51
2022/03/28 04:38:11;;;;;;;8.85;4.57;;;;;;;10.32;57.61;102492.84;4994999;28;102230;-51
2022/03/28 04:40:38;;;;;;;8.52;4.93;;;;;;;10.33;57.80;102488.22;4992871;28;102120;-51
2022/03/28 04:43:06;;;;;;;7.38;4.47;;;;;;;10.32;58.07;102492.84;4994942;28;102578;-51
2022/03/28 04:45:34;;;;;;;8.07;5.35;;;;;;;10.31;58.00;102485.75;4985091;28;104229;-52
2022/03/28 04:48:01;;;;;;;8.73;5.47;;;;;;;10.33;57.78;102478.19;4994656;28;102336;-51
2022/03/28 04:50:29;;;;;;;6.03;4.85;;;;;;;10.32;57.59;102479.25;4994612;28;102223;-51
2022/03/28 04:52:56;;;;;;;7.25;5.32;;;;;;;10.33;57.46;102483.63;4994320;28;102397;-51
2022/03/28 04:55:23;;;;;;;6.88;4.90;;;;;;;10.34;57.80;102482.56;4994259;28;104330;-51
2022/03/28 04:57:50;;;;;;;6.55;4.28;;;;;;;10.34;57.76;102479.84;4976812;28;102031;-51
2022/03/28 05:00:17;;;;;;;6.93;5.00;;;;;;;10.34;58.04;102477.09;4985090;28;102358;-51
2022/03/28 05:02:45;;;;;;;8.05;5.82;;;;;;;10.36;57.48;102476.06;4994611;28;102422;-51
2022/03/28 05:05:12;;;;;;;7.88;5.40;;;;;;;10.37;57.85;102473.09;4992124;28;103873;-51
2022/03/28 05:07:39;;;;;;;7.85;5.60;;;;;;;10.37;57.28;102469.56;4994231;28;101771;-51
2022/03/28 05:10:07;;;;;;;6.70;5.28;;;;;;;10.39;57.94;102470.19;4994249;28;101828;-51
2022/03/28 05:12:34;;;;;;;9.43;5.82;;;;;;;10.39;57.48;102465.56;4994492;28;102131;-51
2022/03/28 05:15:02;;;;;;;10.05;5.65;;;;;;;10.40;57.07;102466.38;4993906;28;104199;-51
2022/03/28 05:17:31;;;;;;;9.03;5.37;;;;;;;10.41;57.38;102462.59;4991323;28;102420;-51
2022/03/28 05:19:59;;;;;;;7.77;5.47;;;;;;;10.42;57.30;102464.25;4989952;28;102820;-51
2022/03/28 05:22:26;;;;;;;8.05;5.50;;;;;;;10.43;57.36;102460.50;4994928;28;102146;-51
2022/03/28 05:24:55;;;;;;;8.63;5.40;;;;;;;10.44;57.47;102462.16;4991599;28;103963;-51
2022/03/28 05:27:21;;;;;;;9.10;5.75;;;;;;;10.45;56.80;102471.97;4993024;28;101893;-51
2022/03/28 05:29:48;;;;;;;8.02;5.32;;;;;;;10.46;57.45;102468.22;4992912;28;102162;-51
2022/03/28 05:32:15;;;;;;;7.50;5.30;;;;;;;10.48;56.62;102468.78;4994452;28;102370;-51
2022/03/28 05:34:42;;;;;;;9.60;5.90;;;;;;;10.48;57.35;102464.19;4990713;28;104104;-51
2022/03/28 05:37:12;;;;;;;10.48;6.43;;;;;;;10.50;56.90;102466.69;4993421;28;101882;-51
2022/03/28 05:39:40;;;;;;;9.57;6.20;;;;;;;10.51;57.08;102462.91;4993491;28;102266;-51
2022/03/28 05:42:08;;;;;;;8.88;5.90;;;;;;;10.51;57.09;102455.56;4993656;28;102592;-51
2022/03/28 05:44:35;;;;;;;9.25;5.95;;;;;;;10.53;56.99;102452.59;4993061;28;103886;-51
2022/03/28 05:47:02;;;;;;;9.77;6.40;;;;;;;10.54;56.80;102448.84;4994019;28;102008;-51
2022/03/28 05:49:29;;;;;;;10.80;6.63;;;;;;;10.55;56.97;102448.59;4992678;28;102586;-51
2022/03/28 05:51:58;;;;;;;7.97;5.35;;;;;;;10.56;57.28;102460.31;4995371;28;102162;-51
2022/03/28 05:54:26;;;;;;;8.90;5.90;;;;;;;10.56;56.39;102449.41;4985499;28;103915;-51
2022/03/28 05:56:52;;;;;;;10.82;6.78;;;;;;;10.56;56.50;102450.25;4991160;28;102634;-51
2022/03/28 05:59:19;;;;;;;8.85;5.63;;;;;;;10.57;56.92;102445.66;4984542;28;102081;-51
2022/03/28 06:01:46;;;;;;;8.20;5.53;;;;;;;10.57;56.61;102451.94;4975134;28;102499;-51
2022/03/28 06:04:13;;;;;;;10.95;6.18;;;;;;;10.57;57.16;102453.84;4992812;28;103786;-51
2022/03/28 06:06:40;;;;;;;9.25;6.40;;;;;;;10.58;56.46;102453.59;4989593;28;102521;-51
2022/03/28 06:09:07;;;;;;;12.35;6.10;;;;;;;10.59;56.65;102448.97;4984975;28;102234;-51
2022/03/28 06:11:35;;;;;;;10.65;6.40;;;;;;;10.58;57.01;102448.16;4994129;28;102129;-51
2022/03/28 06:14:02;;;;;;;8.75;5.55;;;;;;;10.59;56.59;102448.97;4976889;28;103851;-51
2022/03/28 06:16:28;;;;;;;9.10;5.45;;;;;;;10.59;56.46;102449.78;4984769;28;102309;-51
2022/03/28 06:18:56;;;;;;;6.90;5.47;;;;;;;10.59;56.93;102441.63;4991980;28;101769;-51
2022/03/28 06:21:23;;;;;;;10.05;5.47;;;;;;;10.60;56.28;102442.47;4991985;28;102144;-51
2022/03/28 06:23:50;;;;;;;8.02;5.35;;;;;;;10.59;56.50;102443.53;4991058;28;103940;-52
2022/03/28 06:26:17;;;;;;;7.60;4.68;;;;;;;10.61;56.93;102441.41;4992735;28;102143;-51
2022/03/28 06:28:46;;;;;;;7.60;4.78;;;;;;;10.62;56.59;102442.25;4992374;28;102468;-51
2022/03/28 06:31:14;;;;;;;7.32;4.97;;;;;;;10.62;56.34;102440.34;4994078;28;102156;-51
2022/03/28 06:33:41;;;;;;;7.22;4.55;;;;;;;10.63;56.19;102433.84;4991460;28;103964;-51
2022/03/28 06:36:09;;;;;;;6.55;4.18;;;;;;;10.63;56.81;102430.28;4993296;28;101873;-51
2022/03/28 06:38:37;;;;;;;8.13;4.80;;;;;;;10.63;56.94;102428.38;4991724;28;101894;-51
2022/03/28 06:41:05;;;;;;;6.78;4.80;;;;;;;10.64;56.92;102430.06;4994000;28;102513;-51
2022/03/28 06:43:32;;;;;;;7.63;5.00;;;;;;;10.64;56.09;102421.91;4991652;28;103545;-51
2022/03/28 06:46:01;;;;;;;6.72;4.57;;;;;;;10.65;56.69;102422.72;4975048;28;102208;-51
2022/03/28 06:48:27;;;;;;;7.60;5.25;;;;;;;10.66;56.64;102425.22;4972275;28;102292;-51
2022/03/28 06:50:54;;;;;;;6.95;4.30;;;;;;;10.67;56.68;102421.41;4988383;28;102397;-51
2022/03/28 06:53:20;;;;;;;7.47;4.35;;;;;;;10.67;56.92;102418.69;4983399;28;103974;-51
2022/03/28 06:55:47;;;;;;;7.93;4.30;;;;;;;10.67;56.80;102418.69;4992268;28;101844;-51
2022/03/28 06:58:16;;;;;;;7.35;4.57;;;;;;;10.68;56.48;102414.94;4975754;28;102442;-52
2022/03/28 07:00:42;;;;;;;5.47;4.17;;;;;;;10.69;56.35;102416.59;4986442;28;102676;-50
2022/03/28 07:03:10;;;;;;;5.85;4.43;;;;;;;10.69;56.58;102404.88;4972522;28;104158;-51
2022/03/28 07:05:38;;;;;;;7.55;4.50;;;;;;;10.70;56.79;102407.34;4986713;28;102436;-51
2022/03/28 07:08:05;;;;;;;7.47;4.97;;;;;;;10.71;56.30;102409.03;4990493;28;102565;-51
2022/03/28 07:10:31;;;;;;;6.88;4.47;;;;;;;10.71;56.34;102405.44;4995104;28;102290;-51
2022/03/28 07:12:59;;;;;;;6.53;4.53;;;;;;;10.72;56.75;102412.59;4992387;28;103835;-51
2022/03/28 07:15:27;;;;;;;5.88;4.72;;;;;;;10.73;56.93;102409.63;4989719;28;101964;-51
2022/03/28 07:17:56;;;;;;;6.00;4.10;;;;;;;10.73;56.78;102420.50;4991975;28;102437;-51
2022/03/28 07:20:28;;;;;;;6.13;3.97;;;;;;;10.72;56.76;102410.69;4991077;28;102085;-51
2022/03/28 07:22:56;;;;;;;6.50;4.40;;;;;;;10.74;56.74;102403.09;4987853;28;103869;-51
2022/03/28 07:25:24;;;;;;;5.68;3.83;;;;;;;10.75;56.77;102409.41;4985729;28;104610;-51
2022/03/28 07:27:52;;;;;;;6.68;4.32;;;;;;;10.74;56.58;102405.81;4983182;28;103850;-51
2022/03/28 07:30:20;;;;;;;8.43;4.18;;;;;;;10.76;56.05;102395.53;4991789;28;102631;-51
2022/03/28 07:32:47;;;;;;;5.00;3.83;;;;;;;10.76;56.08;102398.25;4982062;28;104076;-51
2022/03/28 07:35:15;;;;;;;6.20;4.15;;;;;;;10.78;56.72;102409.78;4984674;28;102566;-51
2022/03/28 07:37:43;;;;;;;5.15;4.05;;;;;;;10.79;56.26;102408.69;4985742;28;102519;-51
2022/03/28 07:40:11;;;;;;;5.88;3.97;;;;;;;10.79;56.37;102400.53;4992123;28;102512;-51
2022/03/28 07:42:40;;;;;;;6.07;3.85;;;;;;;10.80;56.36;102401.34;4988791;28;103890;-51
2022/03/28 07:45:08;;;;;;;;;;;;;;;10.80;56.48;102401.34;4984450;28;102397;-51
2022/03/28 07:47:35;;;;;;;5.68;4.03;;;;;;;10.81;56.32;102398.38;4982543;28;101983;-51
2022/03/28 07:50:02;;;;;;;6.15;3.60;;;;;;;10.82;56.40;102397.34;4979615;28;102688;-52
2022/03/28 07:52:31;;;;;;;7.50;4.00;;;;;;;10.83;56.48;102390.00;4992188;28;104131;-51
2022/03/28 07:55:00;;;;;;;7.75;4.13;;;;;;;10.82;56.74;102389.19;4987135;28;102434;-51
2022/03/28 07:57:28;;;;;;;5.35;3.50;;;;;;;10.86;56.82;102399.59;4985169;28;102757;-51
2022/03/28 07:59:55;;;;;;;4.90;3.30;;;;;;;10.87;56.03;102390.38;4991074;28;104247;-51
2022/03/28 08:02:23;;;;;;;4.25;2.88;;;;;;;10.87;56.54;102384.91;4983078;28;103885;-51
2022/03/28 08:04:49;;;;;;;6.50;3.50;;;;;;;10.89;56.29;102385.50;4984734;28;102335;-51
2022/03/28 08:07:16;;;;;;;5.90;3.60;;;;;;;10.88;56.18;102375.69;4989184;28;102304;-51
2022/03/28 08:09:43;;;;;;;6.57;3.75;;;;;;;10.90;55.98;102373.56;4994763;28;102429;-51
2022/03/28 08:12:11;;;;;;;6.00;3.83;;;;;;;10.90;56.92;102373.56;4992127;28;103322;-51
2022/03/28 08:14:39;;;;;;;6.15;3.15;;;;;;;10.91;56.67;102375.22;4987225;28;102768;-51
2022/03/28 08:17:06;;;;;;;4.93;3.90;;;;;;;10.91;55.92;102364.31;4984996;28;102391;-51
2022/03/28 08:19:33;;;;;;;4.40;3.03;;;;;;;10.92;56.39;102357.81;4979145;28;102313;-51
2022/03/28 08:22:00;;;;;;;4.70;3.47;;;;;;;10.92;56.14;102355.91;4985787;28;104068;-51
2022/03/28 08:24:27;;;;;;;6.78;3.65;;;;;;;10.94;56.22;102347.50;4989048;28;102020;-51
2022/03/28 08:26:55;;;;;;;5.75;3.75;;;;;;;10.93;56.07;102351.31;4990841;28;102187;-51
2022/03/28 08:29:23;;;;;;;4.93;3.60;;;;;;;10.94;56.58;102347.50;4987896;28;102469;-51
2022/03/28 08:31:50;;;;;;;5.80;3.57;;;;;;;10.95;56.52;102354.63;4989150;28;103962;-51
2022/03/28 08:34:19;;;;;;;6.35;3.55;;;;;;;10.95;55.76;102354.63;4991388;28;102414;-51
2022/03/28 08:36:46;;;;;;;5.05;3.30;;;;;;;10.96;55.94;102353.53;4989336;28;101989;-51
2022/03/28 08:39:13;;;;;;;7.45;3.40;;;;;;;10.95;56.01;102350.00;4989609;28;102249;-51
2022/03/28 08:41:42;;;;;;;5.68;3.40;;;;;;;10.95;56.23;102341.00;4985384;28;104016;-51
2022/03/28 08:44:09;;;;;;;4.72;3.20;;;;;;;10.97;56.23;102347.06;4989975;28;102360;-51
2022/03/28 08:46:41;;;;;;;4.65;3.40;;;;;;;10.97;56.11;102338.88;4990902;28;101841;-51
2022/03/28 08:49:09;;;;;;;6.88;3.75;;;;;;;10.98;55.91;102343.25;4992539;28;102467;-51
2022/03/28 08:51:36;;;;;;;5.18;3.50;;;;;;;10.99;55.90;102328.56;4992804;28;104192;-51
2022/03/28 08:54:03;;;;;;;5.72;3.50;;;;;;;11.00;56.43;102332.97;4984156;28;102230;-51
2022/03/28 08:56:30;;;;;;;5.40;3.58;;;;;;;11.00;55.93;102332.97;4976049;28;102098;-51
2022/03/28 08:58:57;;;;;;;4.75;3.33;;;;;;;10.99;55.80;102323.13;4990421;28;102112;-51
2022/03/28 09:01:24;;;;;;;5.57;3.05;;;;;;;11.00;56.39;102308.44;4991677;28;103848;-51
2022/03/28 09:03:52;;;;;;;4.97;2.92;;;;;;;11.01;56.07;102315.56;4991635;28;102383;-51
2022/03/28 09:06:33;;;;;;;5.47;3.63;;;;;;;11.01;56.60;102315.56;4994185;28;102530;-51
2022/03/28 09:09:11;;;;;;;4.57;3.30;;;;;;;11.01;56.25;102310.09;4994734;28;101905;-51
2022/03/28 09:11:38;;;;;;;5.35;3.28;;;;;;;11.01;56.14;102301.94;4991224;28;103644;-51
2022/03/28 09:14:05;;;;;;;6.03;3.60;;;;;;;11.03;55.86;102302.50;4992821;28;101857;-51
2022/03/28 09:16:34;;;;;;;5.60;3.30;;;;;;;11.01;55.85;102299.19;4994320;28;101980;-51
2022/03/28 09:19:10;;;;;;;4.80;3.38;;;;;;;11.02;56.16;102285.34;4994696;28;102220;-51
2022/03/28 09:21:36;;;;;;;4.88;3.30;;;;;;;11.02;56.04;102288.06;4991209;28;103829;-51
2022/03/28 09:24:08;;;;;;;5.40;3.35;;;;;;;11.02;56.16;102293.50;4978096;28;102338;-51
2022/03/28 09:26:36;;;;;;;6.32;2.88;;;;;;;11.03;56.16;102280.72;4983917;28;102467;-51
2022/03/28 09:29:05;;;;;;;5.00;3.10;;;;;;;11.03;55.73;102277.97;4992831;28;102140;-51
2022/03/28 09:31:34;;;;;;;5.10;3.40;;;;;;;11.03;55.70;102283.44;4989599;28;104483;-51
2022/03/28 09:34:09;;;;;;;3.72;2.80;;;;;;;11.03;56.11;102275.25;4993772;28;102547;-51
2022/03/28 09:36:42;;;;;;;5.20;3.60;;;;;;;11.04;55.85;102269.59;4991981;28;102424;-51
2022/03/28 09:39:11;;;;;;;5.07;3.40;;;;;;;11.04;56.29;102271.50;4992220;28;102422;-51
2022/03/28 09:41:40;;;;;;;5.25;3.35;;;;;;;11.05;56.17;102264.97;4988970;28;105505;-51
2022/03/28 09:44:07;;;;;;;3.95;3.35;;;;;;;11.04;55.52;102255.16;4993210;28;102578;-51
2022/03/28 09:46:34;;;;;;;6.43;3.10;;;;;;;11.05;56.14;102251.34;4992180;28;102017;-51
2022/03/28 09:49:01;;;;;;;5.05;3.10;;;;;;;11.05;55.87;102249.44;4994044;28;102108;-51
2022/03/28 09:51:30;;;;;;;4.13;2.97;;;;;;;11.05;56.18;102245.91;4993140;28;104162;-51
2022/03/28 09:53:58;;;;;;;4.07;3.08;;;;;;;11.04;55.63;102239.63;4993085;28;102435;-51
2022/03/28 09:56:25;;;;;;;4.53;3.05;;;;;;;11.05;56.17;102245.91;4991030;28;102042;-51
2022/03/28 09:59:04;;;;;;;4.35;2.88;;;;;;;11.04;56.12;102236.06;4989249;28;102234;-51
2022/03/28 10:01:35;;;;;;;4.90;2.83;;;;;;;11.05;55.67;102240.44;4988159;28;103894;-51
2022/03/28 10:04:05;;;;;;;4.75;3.10;;;;;;;11.05;55.78;102235.81;4992644;28;102832;-51
2022/03/28 10:06:34;;;;;;;5.50;4.05;;;;;;;11.04;55.70;102226.00;4993401;28;101910;-51
2022/03/28 10:09:01;;;;;;;4.90;3.67;;;;;;;11.04;55.35;102227.91;4994119;28;102307;-51
2022/03/28 10:11:28;;;;;;;5.90;3.10;;;;;;;11.04;55.61;102208.84;4990501;28;104105;-51
2022/03/28 10:13:56;;;;;;;4.50;3.50;;;;;;;11.03;55.45;102205.28;4991404;28;102522;-51
2022/03/28 10:16:22;;;;;;;4.75;3.13;;;;;;;11.04;55.63;102206.94;4992803;28;102426;-51
2022/03/28 10:18:50;;;;;;;6.50;3.40;;;;;;;11.02;55.77;102200.88;4991456;28;102283;-51
2022/03/28 10:21:21;;;;;;;4.63;3.20;;;;;;;11.02;55.72;102203.59;4990803;28;103910;-51
2022/03/28 10:23:54;;;;;;;4.60;3.40;;;;;;;11.02;55.62;102186.44;4988326;28;103668;-51
2022/03/28 10:26:27;;;;;;;5.32;3.13;;;;;;;11.02;55.36;102186.44;4973128;28;102477;-51
2022/03/28 10:29:06;;;;;;;3.95;3.10;;;;;;;11.02;55.98;102184.53;4980963;28;102194;-51
2022/03/28 10:31:55;;;;;;;5.45;3.65;;;;;;;11.01;55.17;102185.59;4983989;28;103724;-51
2022/03/28 10:34:41;;;;;;;7.57;4.65;;;;;;;11.01;55.67;102173.88;4992488;28;102408;-51
2022/03/28 10:37:25;;;;;;;7.30;4.30;;;;;;;11.01;55.81;102168.44;4989402;28;101974;-51
2022/03/28 10:42:55;;;;;;;6.32;4.38;;;;;;;11.00;55.48;102150.44;5039057;27;102207;-51
2022/03/28 10:45:31;;;;;;;5.47;3.80;;;;;;;10.99;55.88;102144.16;5030308;27;102597;-51
2022/03/28 10:47:59;;;;;;;6.15;3.85;;;;;;;10.99;55.30;102132.41;5028956;28;104058;-51
2022/03/28 10:50:30;;;;;;;6.55;3.63;;;;;;;10.99;55.69;102126.97;5027470;27;102021;-51
2022/03/28 10:53:05;;;;;;;6.38;3.45;;;;;;;10.98;55.80;102125.31;5027850;27;102440;-51
2022/03/28 10:55:35;;;;;;;5.28;3.78;;;;;;;10.98;55.36;102117.97;5015414;27;102458;-51
2022/03/28 10:58:17;;;;;;;4.32;3.47;;;;;;;10.97;55.76;102112.78;5014911;27;104581;-51
2022/03/28 11:01:21;;;;;;;5.25;3.55;;;;;;;10.97;55.53;102105.44;5018921;27;102618;-51
2022/03/28 11:04:01;;;;;;;4.22;3.03;;;;;;;10.96;55.27;102095.63;5011296;28;102428;-51
2022/03/28 11:06:52;;;;;;;4.90;3.55;;;;;;;10.96;55.35;102089.31;5020165;28;102598;-51
2022/03/28 11:09:50;;;;;;;4.70;3.47;;;;;;;10.95;55.34;102084.94;5028017;28;103878;-51
2022/03/28 11:12:19;;;;;;;5.07;3.42;;;;;;;10.96;55.33;102083.88;5029452;27;102055;-51
2022/03/28 11:14:57;;;;;;;3.67;2.90;;;;;;;10.96;55.97;102072.97;5022714;27;102521;-51
2022/03/28 11:17:24;;;;;;;4.90;2.95;;;;;;;10.94;55.52;102064.22;5014643;28;102541;-51
2022/03/28 11:20:03;;;;;;;4.13;3.22;;;;;;;10.95;55.12;102063.16;5007767;28;103967;-51
2022/03/28 11:22:44;;;;;;;5.07;3.10;;;;;;;10.94;55.88;102047.88;5008235;28;102480;-51
2022/03/28 11:25:31;;;;;;;4.38;3.08;;;;;;;10.93;55.11;102057.97;5009952;28;102679;-51